createdAt,value
2018-03-07T00:00:46.250Z,0
2018-03-07T00:01:44.822Z,0
2018-03-07T00:02:43.402Z,0
2018-03-07T00:03:41.967Z,0
2018-03-07T00:04:40.646Z,0
2018-03-07T00:05:39.218Z,0
2018-03-07T00:06:37.791Z,0
2018-03-07T00:07:36.363Z,0
2018-03-07T00:08:34.939Z,0
2018-03-07T00:09:33.615Z,0
2018-03-07T00:10:32.186Z,0
2018-03-07T00:11:30.760Z,0
2018-03-07T00:12:29.545Z,0
2018-03-07T00:13:27.908Z,0
2018-03-07T00:14:26.484Z,0
2018-03-07T00:15:25.053Z,0
2018-03-07T00:16:23.830Z,0
2018-03-07T00:17:22.302Z,0
2018-03-07T00:18:20.879Z,0
2018-03-07T00:19:19.448Z,0
2018-03-07T00:20:18.022Z,0
2018-03-07T00:21:16.594Z,0
2018-03-07T00:22:15.289Z,0
2018-03-07T00:23:13.853Z,0
2018-03-07T00:24:12.416Z,0
2018-03-07T00:25:10.992Z,0
2018-03-07T00:26:09.564Z,0
2018-03-07T00:27:08.256Z,0
2018-03-07T00:28:06.812Z,0
2018-03-07T00:29:05.386Z,0
2018-03-07T00:30:03.959Z,0
2018-03-07T00:31:02.635Z,0
2018-03-07T00:32:01.105Z,0
2018-03-07T00:32:59.796Z,0
2018-03-07T00:33:58.354Z,0
2018-03-07T00:34:56.927Z,0
2018-03-07T00:35:55.501Z,0
2018-03-07T00:36:54.073Z,0
2018-03-07T00:37:52.648Z,0
2018-03-07T00:38:51.339Z,0
2018-03-07T00:39:49.895Z,0
2018-03-07T00:40:48.469Z,0
2018-03-07T00:41:47.060Z,0
2018-03-07T00:42:45.615Z,0
2018-03-07T00:43:44.187Z,0
2018-03-07T00:44:42.866Z,0
2018-03-07T00:45:41.437Z,0
2018-03-07T00:46:40.026Z,0
2018-03-07T00:47:38.584Z,0
2018-03-07T00:48:37.157Z,0
2018-03-07T00:49:35.732Z,0
2018-03-07T00:50:34.406Z,0
2018-03-07T00:51:32.980Z,0
2018-03-07T00:52:31.557Z,0
2018-03-07T00:53:30.127Z,0
2018-03-07T00:54:28.701Z,0
2018-03-07T00:55:27.289Z,0
2018-03-07T00:56:25.948Z,0
2018-03-07T00:57:24.525Z,0
2018-03-07T00:58:23.095Z,0
2018-03-07T00:59:21.686Z,0
2018-03-07T01:00:20.239Z,0
2018-03-07T01:01:18.813Z,0
2018-03-07T01:02:17.492Z,0
2018-03-07T01:03:16.064Z,0
2018-03-07T01:04:14.638Z,0
2018-03-07T01:05:13.208Z,0
2018-03-07T01:06:11.789Z,0
2018-03-07T01:07:10.459Z,0
2018-03-07T01:08:09.032Z,0
2018-03-07T01:09:07.707Z,0
2018-03-07T01:10:06.178Z,0
2018-03-07T01:11:04.752Z,0
2018-03-07T01:12:03.330Z,0
2018-03-07T01:13:02.004Z,0
2018-03-07T01:14:00.588Z,0
2018-03-07T01:14:59.149Z,0
2018-03-07T01:15:57.721Z,0
2018-03-07T01:16:56.299Z,0
2018-03-07T01:17:54.867Z,0
2018-03-07T01:18:53.542Z,0
2018-03-07T01:19:52.115Z,0
2018-03-07T01:20:50.687Z,0
2018-03-07T01:21:49.261Z,0
2018-03-07T01:22:47.835Z,0
2018-03-07T01:23:46.407Z,0
2018-03-07T01:24:45.090Z,0
2018-03-07T01:25:43.674Z,0
2018-03-07T01:26:42.231Z,0
2018-03-07T01:27:40.804Z,0
2018-03-07T01:28:39.376Z,0
2018-03-07T01:29:37.949Z,0
2018-03-07T01:30:36.630Z,0
2018-03-07T01:31:35.199Z,0
2018-03-07T01:32:33.773Z,0
2018-03-07T01:33:32.346Z,0
2018-03-07T01:34:30.918Z,0
2018-03-07T01:35:29.493Z,0
2018-03-07T01:36:28.171Z,0
2018-03-07T01:37:26.742Z,0
2018-03-07T01:38:25.313Z,0
2018-03-07T01:39:23.887Z,0
2018-03-07T01:40:22.460Z,0
2018-03-07T01:41:21.033Z,0
2018-03-07T01:42:19.711Z,0
2018-03-07T01:43:18.282Z,0
2018-03-07T01:44:16.857Z,0
2018-03-07T01:45:15.428Z,0
2018-03-07T01:46:14.003Z,0
2018-03-07T01:47:12.576Z,0
2018-03-07T01:48:11.252Z,0
2018-03-07T01:49:09.828Z,0
2018-03-07T01:50:08.397Z,0
2018-03-07T01:51:06.971Z,0
2018-03-07T01:52:05.647Z,0
2018-03-07T01:53:04.221Z,0
2018-03-07T01:54:02.797Z,0
2018-03-07T01:55:01.367Z,0
2018-03-07T01:55:59.942Z,0
2018-03-07T01:56:58.513Z,0
2018-03-07T01:57:57.087Z,0
2018-03-07T01:58:55.865Z,0
2018-03-07T01:59:54.335Z,0
2018-03-07T02:00:52.908Z,0
2018-03-07T02:01:51.584Z,0
2018-03-07T02:02:50.054Z,0
2018-03-07T02:03:48.627Z,0
2018-03-07T02:04:47.303Z,0
2018-03-07T02:05:45.877Z,0
2018-03-07T02:06:44.466Z,0
2018-03-07T02:07:43.039Z,0
2018-03-07T02:08:41.613Z,0
2018-03-07T02:09:40.169Z,0
2018-03-07T02:10:38.845Z,0
2018-03-07T02:11:37.422Z,0
2018-03-07T02:12:35.998Z,0
2018-03-07T02:13:34.584Z,0
2018-03-07T02:14:33.139Z,0
2018-03-07T02:15:31.712Z,0
2018-03-07T02:16:30.389Z,0
2018-03-07T02:17:28.961Z,0
2018-03-07T02:18:27.534Z,0
2018-03-07T02:19:26.110Z,0
2018-03-07T02:20:24.686Z,0
2018-03-07T02:21:23.253Z,0
2018-03-07T02:22:21.928Z,0
2018-03-07T02:23:20.503Z,0
2018-03-07T02:24:19.076Z,0
2018-03-07T02:25:17.649Z,0
2018-03-07T02:26:16.222Z,0
2018-03-07T02:27:14.794Z,0
2018-03-07T02:28:13.471Z,0
2018-03-07T02:29:12.044Z,0
2018-03-07T02:30:10.639Z,0
2018-03-07T02:31:09.192Z,0
2018-03-07T02:32:07.765Z,0
2018-03-07T02:33:06.440Z,0
2018-03-07T02:34:05.014Z,0
2018-03-07T02:35:03.586Z,0
2018-03-07T02:36:02.168Z,0
2018-03-07T02:37:00.735Z,0
2018-03-07T02:37:59.306Z,0
2018-03-07T02:38:57.981Z,0
2018-03-07T02:39:56.555Z,0
2018-03-07T02:40:55.140Z,0
2018-03-07T02:41:53.702Z,0
2018-03-07T02:42:52.275Z,0
2018-03-07T02:43:50.848Z,0
2018-03-07T02:44:49.524Z,0
2018-03-07T02:45:48.098Z,0
2018-03-07T02:46:46.672Z,0
2018-03-07T02:47:45.243Z,0
2018-03-07T02:48:43.816Z,0
2018-03-07T02:49:42.508Z,0
2018-03-07T02:50:41.079Z,0
2018-03-07T02:51:39.641Z,0
2018-03-07T02:52:38.212Z,0
2018-03-07T02:53:36.785Z,0
2018-03-07T02:54:35.357Z,0
2018-03-07T02:55:33.931Z,0
2018-03-07T02:56:32.607Z,0
2018-03-07T02:57:31.181Z,0
2018-03-07T02:58:29.759Z,0
2018-03-07T02:59:28.326Z,0
2018-03-07T03:00:26.903Z,0
2018-03-07T03:01:25.575Z,0
2018-03-07T03:02:24.152Z,0
2018-03-07T03:03:22.721Z,0
2018-03-07T03:04:21.397Z,0
2018-03-07T03:05:19.869Z,0
2018-03-07T03:06:18.443Z,0
2018-03-07T03:07:17.118Z,0
2018-03-07T03:08:15.895Z,0
2018-03-07T03:09:14.266Z,0
2018-03-07T03:10:12.836Z,0
2018-03-07T03:11:11.409Z,0
2018-03-07T03:12:10.086Z,0
2018-03-07T03:13:08.573Z,0
2018-03-07T03:14:07.233Z,0
2018-03-07T03:15:05.806Z,0
2018-03-07T03:16:04.379Z,0
2018-03-07T03:17:02.952Z,0
2018-03-07T03:18:01.524Z,0
2018-03-07T03:19:00.200Z,0
2018-03-07T03:19:58.775Z,0
2018-03-07T03:20:57.451Z,0
2018-03-07T03:21:56.023Z,0
2018-03-07T03:22:54.497Z,0
2018-03-07T03:23:53.169Z,0
2018-03-07T03:24:51.742Z,0
2018-03-07T03:25:50.316Z,0
2018-03-07T03:26:48.889Z,0
2018-03-07T03:27:47.565Z,0
2018-03-07T03:28:46.034Z,0
2018-03-07T03:29:44.609Z,0
2018-03-07T03:30:43.285Z,0
2018-03-07T03:31:41.859Z,0
2018-03-07T03:32:40.432Z,0
2018-03-07T03:33:39.004Z,0
2018-03-07T03:34:37.578Z,0
2018-03-07T03:35:36.151Z,0
2018-03-07T03:36:34.929Z,0
2018-03-07T03:37:33.401Z,0
2018-03-07T03:38:31.973Z,0
2018-03-07T03:39:30.672Z,0
2018-03-07T03:40:29.122Z,0
2018-03-07T03:41:27.693Z,0
2018-03-07T03:42:26.367Z,0
2018-03-07T03:43:24.942Z,0
2018-03-07T03:44:23.514Z,0
2018-03-07T03:45:22.088Z,0
2018-03-07T03:46:20.664Z,0
2018-03-07T03:47:19.234Z,0
2018-03-07T03:48:17.910Z,0
2018-03-07T03:49:16.692Z,0
2018-03-07T03:50:15.057Z,0
2018-03-07T03:51:13.629Z,0
2018-03-07T03:52:12.203Z,0
2018-03-07T03:53:10.776Z,0
2018-03-07T03:54:09.452Z,0
2018-03-07T03:55:08.025Z,0
2018-03-07T03:56:06.600Z,0
2018-03-07T03:57:05.173Z,0
2018-03-07T03:58:03.743Z,0
2018-03-07T03:59:02.422Z,0
2018-03-07T04:00:00.994Z,0
2018-03-07T04:00:59.589Z,0
2018-03-07T04:01:58.140Z,0
2018-03-07T04:02:56.713Z,0
2018-03-07T04:03:55.392Z,0
2018-03-07T04:04:53.962Z,0
2018-03-07T04:05:52.535Z,0
2018-03-07T04:06:51.113Z,0
2018-03-07T04:07:49.684Z,0
2018-03-07T04:08:48.256Z,0
2018-03-07T04:09:46.831Z,0
2018-03-07T04:10:45.506Z,0
2018-03-07T04:11:44.081Z,0
2018-03-07T04:12:42.753Z,0
2018-03-07T04:13:41.327Z,0
2018-03-07T04:14:39.799Z,0
2018-03-07T04:15:38.388Z,0
2018-03-07T04:16:37.148Z,0
2018-03-07T04:17:35.620Z,0
2018-03-07T04:18:34.207Z,0
2018-03-07T04:19:32.767Z,0
2018-03-07T04:20:31.340Z,0
2018-03-07T04:21:30.016Z,0
2018-03-07T04:22:28.690Z,0
2018-03-07T04:23:27.161Z,0
2018-03-07T04:24:25.750Z,0
2018-03-07T04:25:24.308Z,0
2018-03-07T04:26:22.881Z,0
2018-03-07T04:27:21.453Z,0
2018-03-07T04:28:20.129Z,0
2018-03-07T04:29:18.703Z,0
2018-03-07T04:30:17.276Z,0
2018-03-07T04:31:15.851Z,0
2018-03-07T04:32:14.443Z,0
2018-03-07T04:33:12.996Z,0
2018-03-07T04:34:11.674Z,0
2018-03-07T04:35:10.244Z,0
2018-03-07T04:36:08.824Z,0
2018-03-07T04:37:07.392Z,0
2018-03-07T04:38:05.982Z,0
2018-03-07T04:39:04.948Z,0
2018-03-07T04:40:03.317Z,0
2018-03-07T04:41:01.894Z,0
2018-03-07T04:42:00.361Z,0
2018-03-07T04:42:58.933Z,0
2018-03-07T04:43:57.506Z,0
2018-03-07T04:44:56.183Z,0
2018-03-07T04:45:54.754Z,0
2018-03-07T04:46:53.331Z,0
2018-03-07T04:47:51.902Z,0
2018-03-07T04:48:50.474Z,0
2018-03-07T04:49:49.048Z,0
2018-03-07T04:50:47.724Z,0
2018-03-07T04:51:46.402Z,0
2018-03-07T04:52:44.872Z,0
2018-03-07T04:53:43.446Z,0
2018-03-07T04:54:42.019Z,0
2018-03-07T04:55:40.590Z,0
2018-03-07T04:56:39.266Z,0
2018-03-07T04:57:37.840Z,0
2018-03-07T04:58:36.412Z,0
2018-03-07T04:59:34.985Z,0
2018-03-07T05:00:33.561Z,0
2018-03-07T05:01:32.132Z,0
2018-03-07T05:02:30.811Z,0
2018-03-07T05:03:29.484Z,0
2018-03-07T05:04:27.954Z,0
2018-03-07T05:05:26.528Z,0
2018-03-07T05:06:25.102Z,0
2018-03-07T05:07:23.674Z,0
2018-03-07T05:08:22.350Z,0
2018-03-07T05:09:20.922Z,0
2018-03-07T05:10:19.495Z,0
2018-03-07T05:11:18.085Z,0
2018-03-07T05:12:16.641Z,0
2018-03-07T05:13:15.334Z,0
2018-03-07T05:14:13.893Z,0
2018-03-07T05:15:12.465Z,0
2018-03-07T05:16:11.038Z,0
2018-03-07T05:17:09.612Z,0
2018-03-07T05:18:08.184Z,0
2018-03-07T05:19:06.877Z,0
2018-03-07T05:20:05.536Z,0
2018-03-07T05:21:04.007Z,0
2018-03-07T05:22:02.580Z,0
2018-03-07T05:23:01.153Z,20
2018-03-07T05:23:59.730Z,20
2018-03-07T05:24:58.406Z,20
2018-03-07T05:25:56.975Z,20
2018-03-07T05:26:55.548Z,0
2018-03-07T05:27:54.122Z,0
2018-03-07T05:28:52.694Z,0
2018-03-07T05:29:51.270Z,0
2018-03-07T05:30:49.944Z,0
2018-03-07T05:31:48.517Z,0
2018-03-07T05:32:47.091Z,0
2018-03-07T05:33:45.666Z,0
2018-03-07T05:34:44.237Z,0
2018-03-07T05:35:42.810Z,0
2018-03-07T05:36:41.485Z,0
2018-03-07T05:37:40.059Z,0
2018-03-07T05:38:38.631Z,0
2018-03-07T05:39:37.205Z,0
2018-03-07T05:40:35.881Z,0
2018-03-07T05:41:34.351Z,0
2018-03-07T05:42:33.131Z,0
2018-03-07T05:43:31.602Z,0
2018-03-07T05:44:30.174Z,0
2018-03-07T05:45:28.749Z,0
2018-03-07T05:46:27.321Z,0
2018-03-07T05:47:25.893Z,0
2018-03-07T05:48:24.671Z,0
2018-03-07T05:49:23.142Z,0
2018-03-07T05:50:21.717Z,0
2018-03-07T05:51:20.296Z,0
2018-03-07T05:52:18.861Z,0
2018-03-07T05:53:17.435Z,0
2018-03-07T05:54:16.112Z,0
2018-03-07T05:55:14.701Z,0
2018-03-07T05:56:13.260Z,0
2018-03-07T05:57:11.932Z,20
2018-03-07T05:58:10.403Z,20
2018-03-07T05:59:09.083Z,20
2018-03-07T06:00:07.657Z,20
2018-03-07T06:01:06.226Z,20
2018-03-07T06:02:04.801Z,20
2018-03-07T06:03:03.372Z,20
2018-03-07T06:04:01.944Z,20
2018-03-07T06:05:00.740Z,20
2018-03-07T06:05:59.196Z,20
2018-03-07T06:06:57.808Z,20
2018-03-07T06:07:56.341Z,20
2018-03-07T06:08:54.931Z,20
2018-03-07T06:09:53.488Z,20
2018-03-07T06:10:52.163Z,20
2018-03-07T06:11:50.737Z,20
2018-03-07T06:12:49.312Z,20
2018-03-07T06:13:47.883Z,20
2018-03-07T06:14:46.457Z,20
2018-03-07T06:15:45.029Z,20
2018-03-07T06:16:43.706Z,20
2018-03-07T06:17:42.381Z,20
2018-03-07T06:18:40.852Z,20
2018-03-07T06:19:39.426Z,20
2018-03-07T06:20:37.998Z,20
2018-03-07T06:21:36.573Z,20
2018-03-07T06:22:35.247Z,20
2018-03-07T06:23:33.820Z,20
2018-03-07T06:24:32.393Z,23
2018-03-07T06:25:30.966Z,23
2018-03-07T06:26:29.541Z,23
2018-03-07T06:27:28.113Z,23
2018-03-07T06:28:26.789Z,23
2018-03-07T06:29:25.380Z,23
2018-03-07T06:30:23.936Z,23
2018-03-07T06:31:22.508Z,23
2018-03-07T06:32:21.185Z,23
2018-03-07T06:33:19.655Z,23
2018-03-07T06:34:18.331Z,23
2018-03-07T06:35:16.904Z,23
2018-03-07T06:36:15.478Z,23
2018-03-07T06:37:14.059Z,23
2018-03-07T06:38:12.624Z,23
2018-03-07T06:39:11.198Z,23
2018-03-07T06:40:09.875Z,23
2018-03-07T06:41:08.479Z,23
2018-03-07T06:42:07.019Z,23
2018-03-07T06:43:05.592Z,23
2018-03-07T06:44:04.165Z,23
2018-03-07T06:45:02.857Z,23
2018-03-07T06:46:01.414Z,23
2018-03-07T06:46:59.987Z,23
2018-03-07T06:47:58.561Z,23
2018-03-07T06:48:57.133Z,23
2018-03-07T06:49:55.706Z,23
2018-03-07T06:50:54.385Z,23
2018-03-07T06:51:52.963Z,23
2018-03-07T06:52:51.530Z,23
2018-03-07T06:53:50.102Z,23
2018-03-07T06:54:48.677Z,23
2018-03-07T06:55:47.249Z,23
2018-03-07T06:56:45.924Z,23
2018-03-07T06:57:44.509Z,23
2018-03-07T06:58:43.101Z,23
2018-03-07T06:59:41.646Z,23
2018-03-07T07:00:40.218Z,23
2018-03-07T07:01:38.790Z,23
2018-03-07T07:02:37.467Z,23
2018-03-07T07:03:36.146Z,23
2018-03-07T07:04:34.614Z,23
2018-03-07T07:05:33.187Z,23
2018-03-07T07:06:31.763Z,23
2018-03-07T07:07:30.335Z,23
2018-03-07T07:08:29.009Z,23
2018-03-07T07:09:27.584Z,23
2018-03-07T07:10:26.155Z,23
2018-03-07T07:11:24.730Z,23
2018-03-07T07:12:23.301Z,23
2018-03-07T07:13:21.874Z,23
2018-03-07T07:14:20.550Z,23
2018-03-07T07:15:19.124Z,23
2018-03-07T07:16:17.814Z,23
2018-03-07T07:17:16.269Z,23
2018-03-07T07:18:14.848Z,23
2018-03-07T07:19:13.418Z,23
2018-03-07T07:20:12.098Z,23
2018-03-07T07:21:10.665Z,23
2018-03-07T07:22:09.274Z,23
2018-03-07T07:23:07.815Z,20
2018-03-07T07:24:06.385Z,25
2018-03-07T07:25:05.061Z,20
2018-03-07T07:26:03.636Z,20
2018-03-07T07:27:02.313Z,28
2018-03-07T07:28:00.781Z,28
2018-03-07T07:28:59.357Z,25
2018-03-07T07:29:57.947Z,28
2018-03-07T07:30:56.605Z,28
2018-03-07T07:31:55.176Z,28
2018-03-07T07:32:53.752Z,28
2018-03-07T07:33:52.425Z,28
2018-03-07T07:34:50.898Z,28
2018-03-07T07:35:49.485Z,25
2018-03-07T07:36:48.145Z,25
2018-03-07T07:37:46.719Z,28
2018-03-07T07:38:45.290Z,28
2018-03-07T07:39:43.880Z,28
2018-03-07T07:40:42.496Z,28
2018-03-07T07:41:41.009Z,28
2018-03-07T07:42:39.688Z,28
2018-03-07T07:43:38.261Z,25
2018-03-07T07:44:36.834Z,28
2018-03-07T07:45:35.405Z,28
2018-03-07T07:46:33.995Z,28
2018-03-07T07:47:32.554Z,28
2018-03-07T07:48:31.330Z,28
2018-03-07T07:49:29.801Z,28
2018-03-07T07:50:28.375Z,28
2018-03-07T07:51:26.957Z,28
2018-03-07T07:52:25.521Z,28
2018-03-07T07:53:24.094Z,28
2018-03-07T07:54:22.771Z,28
2018-03-07T07:55:21.344Z,28
2018-03-07T07:56:19.916Z,28
2018-03-07T07:57:18.490Z,28
2018-03-07T07:58:17.078Z,31
2018-03-07T07:59:15.635Z,31
2018-03-07T08:00:14.721Z,31
2018-03-07T08:01:12.884Z,34
2018-03-07T08:02:11.462Z,34
2018-03-07T08:03:10.049Z,34
2018-03-07T08:04:08.605Z,34
2018-03-07T08:05:07.282Z,37
2018-03-07T08:06:05.854Z,37
2018-03-07T08:07:04.427Z,34
2018-03-07T08:08:03.001Z,34
2018-03-07T08:09:01.574Z,37
2018-03-07T08:10:00.146Z,37
2018-03-07T08:10:58.822Z,37
2018-03-07T08:11:57.396Z,34
2018-03-07T08:12:55.970Z,34
2018-03-07T08:13:54.646Z,31
2018-03-07T08:14:53.119Z,34
2018-03-07T08:15:51.688Z,31
2018-03-07T08:16:50.364Z,31
2018-03-07T08:17:48.938Z,34
2018-03-07T08:18:47.512Z,34
2018-03-07T08:19:46.084Z,34
2018-03-07T08:20:44.661Z,34
2018-03-07T08:21:43.230Z,28
2018-03-07T08:22:41.907Z,28
2018-03-07T08:23:40.583Z,34
2018-03-07T08:24:39.053Z,37
2018-03-07T08:25:37.627Z,37
2018-03-07T08:26:36.199Z,37
2018-03-07T08:27:34.773Z,37
2018-03-07T08:28:33.449Z,40
2018-03-07T08:29:32.225Z,40
2018-03-07T08:30:30.595Z,34
2018-03-07T08:31:29.168Z,34
2018-03-07T08:32:27.740Z,34
2018-03-07T08:33:26.312Z,34
2018-03-07T08:34:24.991Z,37
2018-03-07T08:35:23.563Z,37
2018-03-07T08:36:22.137Z,37
2018-03-07T08:37:20.711Z,40
2018-03-07T08:38:19.282Z,40
2018-03-07T08:39:17.856Z,46
2018-03-07T08:40:16.533Z,46
2018-03-07T08:41:15.106Z,20
2018-03-07T08:42:13.680Z,20
2018-03-07T08:43:12.252Z,20
2018-03-07T08:44:10.825Z,17
2018-03-07T08:45:09.501Z,14
2018-03-07T08:46:08.177Z,14
2018-03-07T08:47:06.647Z,14
2018-03-07T08:48:05.220Z,14
2018-03-07T08:49:03.792Z,14
2018-03-07T08:50:02.366Z,20
2018-03-07T08:51:01.042Z,17
2018-03-07T08:51:59.616Z,14
2018-03-07T08:52:58.189Z,17
2018-03-07T08:53:56.762Z,23
2018-03-07T08:54:55.335Z,37
2018-03-07T08:55:53.907Z,46
2018-03-07T08:56:52.584Z,25
2018-03-07T08:57:51.159Z,25
2018-03-07T08:58:49.730Z,43
2018-03-07T08:59:48.307Z,37
2018-03-07T09:00:46.879Z,72
2018-03-07T09:01:45.451Z,80
2018-03-07T09:02:44.127Z,80
2018-03-07T09:03:42.699Z,80
2018-03-07T09:04:41.279Z,80
2018-03-07T09:05:39.846Z,80
2018-03-07T09:06:38.420Z,80
2018-03-07T09:07:36.992Z,80
2018-03-07T09:08:35.668Z,83
2018-03-07T09:09:34.243Z,83
2018-03-07T09:10:32.814Z,80
2018-03-07T09:11:31.388Z,86
2018-03-07T09:12:29.962Z,80
2018-03-07T09:13:28.534Z,83
2018-03-07T09:14:27.211Z,86
2018-03-07T09:15:25.783Z,83
2018-03-07T09:16:24.357Z,83
2018-03-07T09:17:22.928Z,74
2018-03-07T09:18:21.520Z,92
2018-03-07T09:19:20.075Z,95
2018-03-07T09:20:18.855Z,37
2018-03-07T09:21:17.324Z,28
2018-03-07T09:22:15.898Z,20
2018-03-07T09:23:14.475Z,23
2018-03-07T09:24:13.043Z,20
2018-03-07T09:25:11.720Z,25
2018-03-07T09:26:10.293Z,60
2018-03-07T09:27:08.867Z,69
2018-03-07T09:28:07.440Z,31
2018-03-07T09:29:06.082Z,80
2018-03-07T09:30:04.604Z,25
2018-03-07T09:31:03.278Z,23
2018-03-07T09:32:01.837Z,23
2018-03-07T09:33:00.408Z,20
2018-03-07T09:33:58.984Z,17
2018-03-07T09:34:57.589Z,17
2018-03-07T09:35:56.128Z,14
2018-03-07T09:36:54.814Z,14
2018-03-07T09:37:53.376Z,14
2018-03-07T09:38:51.950Z,14
2018-03-07T09:39:50.523Z,11
2018-03-07T09:40:49.096Z,14
2018-03-07T09:41:47.669Z,11
2018-03-07T09:42:46.364Z,11
2018-03-07T09:43:44.919Z,11
2018-03-07T09:44:43.492Z,11
2018-03-07T09:45:42.075Z,40
2018-03-07T09:46:40.640Z,40
2018-03-07T09:47:39.211Z,37
2018-03-07T09:48:37.888Z,37
2018-03-07T09:49:36.461Z,37
2018-03-07T09:50:35.091Z,40
2018-03-07T09:51:33.609Z,37
2018-03-07T09:52:32.180Z,37
2018-03-07T09:53:30.754Z,37
2018-03-07T09:54:29.428Z,37
2018-03-07T09:55:28.002Z,37
2018-03-07T09:56:26.652Z,37
2018-03-07T09:57:25.253Z,37
2018-03-07T09:58:23.723Z,37
2018-03-07T09:59:22.295Z,37
2018-03-07T10:00:20.971Z,37
2018-03-07T10:01:19.548Z,37
2018-03-07T10:02:18.122Z,37
2018-03-07T10:03:16.690Z,37
2018-03-07T10:04:15.265Z,37
2018-03-07T10:05:13.941Z,37
2018-03-07T10:06:12.513Z,37
2018-03-07T10:07:11.089Z,37
2018-03-07T10:08:09.660Z,37
2018-03-07T10:09:08.236Z,37
2018-03-07T10:10:06.806Z,40
2018-03-07T10:11:05.490Z,40
2018-03-07T10:12:04.055Z,40
2018-03-07T10:13:02.631Z,40
2018-03-07T10:14:01.200Z,40
2018-03-07T10:14:59.981Z,40
2018-03-07T10:15:58.347Z,40
2018-03-07T10:16:57.128Z,40
2018-03-07T10:17:55.609Z,40
2018-03-07T10:18:54.171Z,40
2018-03-07T10:19:52.744Z,37
2018-03-07T10:20:51.330Z,37
2018-03-07T10:21:49.905Z,37
2018-03-07T10:22:48.573Z,40
2018-03-07T10:23:47.138Z,40
2018-03-07T10:24:45.718Z,43
2018-03-07T10:25:44.285Z,46
2018-03-07T10:26:42.859Z,48
2018-03-07T10:27:41.431Z,54
2018-03-07T10:28:40.118Z,54
2018-03-07T10:29:38.711Z,63
2018-03-07T10:30:37.251Z,92
2018-03-07T10:31:35.827Z,112
2018-03-07T10:32:34.400Z,86
2018-03-07T10:33:32.973Z,115
2018-03-07T10:34:31.650Z,72
2018-03-07T10:35:30.226Z,169
2018-03-07T10:36:28.795Z,74
2018-03-07T10:37:27.369Z,80
2018-03-07T10:38:25.942Z,63
2018-03-07T10:39:24.515Z,92
2018-03-07T10:40:23.190Z,129
2018-03-07T10:41:21.892Z,97
2018-03-07T10:42:20.336Z,89
2018-03-07T10:43:18.910Z,86
2018-03-07T10:44:17.485Z,40
2018-03-07T10:45:16.161Z,132
2018-03-07T10:46:14.734Z,135
2018-03-07T10:47:13.304Z,14
2018-03-07T10:48:11.879Z,14
2018-03-07T10:49:10.453Z,11
2018-03-07T10:50:09.024Z,11
2018-03-07T10:51:07.705Z,11
2018-03-07T10:52:06.275Z,11
2018-03-07T10:53:04.848Z,11
2018-03-07T10:54:03.437Z,14
2018-03-07T10:55:01.995Z,14
2018-03-07T10:56:00.568Z,14
2018-03-07T10:56:59.243Z,14
2018-03-07T10:57:57.818Z,31
2018-03-07T10:58:56.388Z,20
2018-03-07T10:59:54.962Z,17
2018-03-07T11:00:53.534Z,17
2018-03-07T11:01:52.108Z,20
2018-03-07T11:02:50.784Z,23
2018-03-07T11:03:49.361Z,23
2018-03-07T11:04:47.931Z,20
2018-03-07T11:05:46.515Z,20
2018-03-07T11:06:45.076Z,20
2018-03-07T11:07:43.650Z,28
2018-03-07T11:08:42.324Z,23
2018-03-07T11:09:40.899Z,20
2018-03-07T11:10:39.472Z,20
2018-03-07T11:11:38.049Z,20
2018-03-07T11:12:36.619Z,20
2018-03-07T11:13:35.191Z,17
2018-03-07T11:14:33.908Z,17
2018-03-07T11:15:32.441Z,17
2018-03-07T11:16:31.014Z,20
2018-03-07T11:17:29.590Z,20
2018-03-07T11:18:28.161Z,17
2018-03-07T11:19:26.836Z,14
2018-03-07T11:20:25.409Z,14
2018-03-07T11:21:23.983Z,17
2018-03-07T11:22:22.556Z,14
2018-03-07T11:23:21.129Z,14
2018-03-07T11:24:19.751Z,14
2018-03-07T11:25:18.383Z,14
2018-03-07T11:26:17.157Z,14
2018-03-07T11:27:15.532Z,11
2018-03-07T11:28:14.099Z,11
2018-03-07T11:29:12.671Z,11
2018-03-07T11:30:11.249Z,11
2018-03-07T11:31:09.922Z,11
2018-03-07T11:32:08.493Z,11
2018-03-07T11:33:07.185Z,11
2018-03-07T11:34:05.640Z,11
2018-03-07T11:35:04.212Z,14
2018-03-07T11:36:02.786Z,14
2018-03-07T11:37:01.462Z,17
2018-03-07T11:38:00.035Z,14
2018-03-07T11:38:58.608Z,14
2018-03-07T11:39:57.182Z,14
2018-03-07T11:40:55.808Z,11
2018-03-07T11:41:54.327Z,11
2018-03-07T11:42:53.003Z,11
2018-03-07T11:43:51.577Z,11
2018-03-07T11:44:50.151Z,14
2018-03-07T11:45:48.826Z,14
2018-03-07T11:46:47.296Z,20
2018-03-07T11:47:45.869Z,23
2018-03-07T11:48:44.552Z,23
2018-03-07T11:49:43.118Z,20
2018-03-07T11:50:41.694Z,23
2018-03-07T11:51:40.265Z,14
2018-03-07T11:52:38.840Z,14
2018-03-07T11:53:37.412Z,11
2018-03-07T11:54:36.086Z,11
2018-03-07T11:55:34.661Z,11
2018-03-07T11:56:33.237Z,11
2018-03-07T11:57:31.909Z,11
2018-03-07T11:58:30.381Z,11
2018-03-07T11:59:29.056Z,8
2018-03-07T12:00:27.629Z,8
2018-03-07T12:01:26.304Z,8
2018-03-07T12:02:24.775Z,8
2018-03-07T12:03:23.349Z,11
2018-03-07T12:04:21.921Z,11
2018-03-07T12:05:20.598Z,17
2018-03-07T12:06:19.170Z,28
2018-03-07T12:07:17.744Z,20
2018-03-07T12:08:16.320Z,17
2018-03-07T12:09:15.000Z,14
2018-03-07T12:10:13.464Z,14
2018-03-07T12:11:12.141Z,14
2018-03-07T12:12:10.712Z,23
2018-03-07T12:13:09.285Z,20
2018-03-07T12:14:07.862Z,20
2018-03-07T12:15:06.432Z,23
2018-03-07T12:16:05.029Z,43
2018-03-07T12:17:03.681Z,34
2018-03-07T12:18:02.253Z,31
2018-03-07T12:19:00.828Z,31
2018-03-07T12:19:59.606Z,34
2018-03-07T12:20:57.973Z,34
2018-03-07T12:21:56.547Z,34
2018-03-07T12:22:55.223Z,34
2018-03-07T12:23:53.796Z,48
2018-03-07T12:24:52.369Z,135
2018-03-07T12:25:50.960Z,132
2018-03-07T12:26:49.515Z,126
2018-03-07T12:27:48.088Z,132
2018-03-07T12:28:46.765Z,126
2018-03-07T12:29:45.357Z,123
2018-03-07T12:30:43.911Z,95
2018-03-07T12:31:42.484Z,106
2018-03-07T12:32:41.060Z,97
2018-03-07T12:33:39.735Z,25
2018-03-07T12:34:38.312Z,20
2018-03-07T12:35:36.879Z,20
2018-03-07T12:36:35.452Z,25
2018-03-07T12:37:34.032Z,25
2018-03-07T12:38:32.601Z,34
2018-03-07T12:39:31.275Z,25
2018-03-07T12:40:29.852Z,25
2018-03-07T12:41:28.523Z,34
2018-03-07T12:42:26.995Z,34
2018-03-07T12:43:25.568Z,25
2018-03-07T12:44:24.140Z,20
2018-03-07T12:45:22.817Z,20
2018-03-07T12:46:21.390Z,20
2018-03-07T12:47:20.086Z,25
2018-03-07T12:48:18.536Z,28
2018-03-07T12:49:17.118Z,28
2018-03-07T12:50:15.682Z,23
2018-03-07T12:51:14.358Z,20
2018-03-07T12:52:12.932Z,20
2018-03-07T12:53:11.504Z,14
2018-03-07T12:54:10.081Z,14
2018-03-07T12:55:08.671Z,14
2018-03-07T12:56:07.225Z,14
2018-03-07T12:57:05.902Z,14
2018-03-07T12:58:04.489Z,11
2018-03-07T12:59:03.047Z,14
2018-03-07T13:00:01.618Z,14
2018-03-07T13:01:00.203Z,17
2018-03-07T13:01:58.767Z,51
2018-03-07T13:02:57.446Z,17
2018-03-07T13:03:56.118Z,14
2018-03-07T13:04:54.590Z,14
2018-03-07T13:05:53.161Z,43
2018-03-07T13:06:51.776Z,28
2018-03-07T13:07:50.425Z,20
2018-03-07T13:08:48.985Z,14
2018-03-07T13:09:47.557Z,14
2018-03-07T13:10:46.132Z,11
2018-03-07T13:11:44.705Z,11
2018-03-07T13:12:43.277Z,11
2018-03-07T13:13:41.956Z,11
2018-03-07T13:14:40.524Z,11
2018-03-07T13:15:39.102Z,11
2018-03-07T13:16:37.673Z,11
2018-03-07T13:17:36.245Z,8
2018-03-07T13:18:34.818Z,8
2018-03-07T13:19:33.496Z,8
2018-03-07T13:20:32.068Z,8
2018-03-07T13:21:30.640Z,8
2018-03-07T13:22:29.214Z,8
2018-03-07T13:23:27.788Z,8
2018-03-07T13:24:26.361Z,8
2018-03-07T13:25:25.038Z,8
2018-03-07T13:26:23.638Z,8
2018-03-07T13:27:22.183Z,8
2018-03-07T13:28:20.755Z,8
2018-03-07T13:29:19.328Z,8
2018-03-07T13:30:18.094Z,8
2018-03-07T13:31:16.683Z,8
2018-03-07T13:32:15.151Z,11
2018-03-07T13:33:13.724Z,11
2018-03-07T13:34:12.298Z,11
2018-03-07T13:35:10.871Z,11
2018-03-07T13:36:09.450Z,11
2018-03-07T13:37:08.120Z,14
2018-03-07T13:38:06.795Z,20
2018-03-07T13:39:05.268Z,54
2018-03-07T13:40:03.839Z,43
2018-03-07T13:41:02.516Z,86
2018-03-07T13:42:00.986Z,86
2018-03-07T13:42:59.661Z,80
2018-03-07T13:43:58.234Z,74
2018-03-07T13:44:56.910Z,74
2018-03-07T13:45:55.382Z,77
2018-03-07T13:46:53.953Z,80
2018-03-07T13:47:52.630Z,80
2018-03-07T13:48:51.205Z,80
2018-03-07T13:49:49.780Z,80
2018-03-07T13:50:48.514Z,43
2018-03-07T13:51:46.921Z,40
2018-03-07T13:52:45.497Z,57
2018-03-07T13:53:44.172Z,23
2018-03-07T13:54:42.847Z,20
2018-03-07T13:55:41.341Z,20
2018-03-07T13:56:39.891Z,23
2018-03-07T13:57:38.465Z,25
2018-03-07T13:58:37.038Z,23
2018-03-07T13:59:35.716Z,25
2018-03-07T14:00:34.287Z,25
2018-03-07T14:01:32.877Z,28
2018-03-07T14:02:31.570Z,25
2018-03-07T14:03:30.008Z,23
2018-03-07T14:04:28.578Z,23
2018-03-07T14:05:27.281Z,25
2018-03-07T14:06:25.829Z,25
2018-03-07T14:07:24.406Z,37
2018-03-07T14:08:22.979Z,48